Point Lookout, New York
Current Conditions -  °F | °C
As of 5:51 AM on Friday 31 Oct 2014 (Local Time) from KJFK Reporting Station
Broken Clouds Broken Clouds  
Wind Chill: 44°   Ceiling: 4600
Heat Index: 47°   Visibility: 10mi
Dew Point: 35°   Wind: 7mph
Humidity: 63%   Direction: 360°N
Pressure: 30.02"   Gusts: NA
Location:  40.59°N, 73.58°W
Report Text: KJFK 310951Z 36006KT 10SM BKN046 08/02 A3002 RMK AO2 SLP164 T00830017
Loading
Personal Weather Stations






























Interactive Weather Map
Tropical Storm Tracking
New forecast layout! Learn more

10-Day Weather Forecast

Advertisements
Track Severe Weather on mobile